Shiloh, Georgia
Current Conditions -  °F | °C
As of 10:51 AM on Saturday 25 Oct 2014 (Local Time) from KCSG Reporting Station
Clear Clear  
Wind Chill: 65°   Ceiling: Unl
Heat Index: 65°   Visibility: 10mi
Dew Point: 43°   Wind: 7mph
Humidity: 45%   Direction: 360°N
Pressure: 30.08"   Gusts: NA
Location:  32.81°N, 84.7°W
Report Text: KCSG 251451Z 36006KT 10SM CLR 18/06 A3008 RMK AO2 SLP182 T01830061 50007
Loading
Personal Weather Stations






























Interactive Weather Map
Tropical Storm Tracking
New forecast layout! Learn more

10-Day Weather Forecast

Advertisements
Track Severe Weather on mobile